Time;durP1;ratioP1;P1;durP2;ratioP2;P2;SDS_P1;SDS_P2;PMS_P1;PMS_P2;Temp;Humidity;BMP_temperature;BMP_pressure;BME280_temperature;BME280_humidity;BME280_pressure;Samples;Min_cycle;Max_cycle;Signal;HPM_P1;HPM_P2
2021/12/01 00:03:27;;;;;;;2.58;1.02;;;5.50;94.90;;;;;;10118198;28;20513;-72
2021/12/01 00:08:18;;;;;;;1.13;1.02;;;5.50;95.00;;;;;;10116549;28;20414;-72
2021/12/01 00:13:15;;;;;;;2.20;1.17;;;5.50;94.90;;;;;;10119278;28;20584;-72
2021/12/01 00:18:07;;;;;;;2.88;1.20;;;5.50;95.00;;;;;;10110370;28;20135;-75
2021/12/01 00:22:59;;;;;;;2.50;1.25;;;5.40;94.90;;;;;;10120411;28;20092;-75
2021/12/01 00:27:53;;;;;;;2.17;1.38;;;5.50;95.00;;;;;;10104401;28;20031;-74
2021/12/01 00:32:44;;;;;;;2.10;1.25;;;5.40;95.00;;;;;;10117383;28;20415;-73
2021/12/01 00:37:36;;;;;;;2.25;1.20;;;5.50;94.90;;;;;;10119193;28;20110;-72
2021/12/01 00:42:27;;;;;;;2.80;1.23;;;5.60;94.90;;;;;;10113964;28;20029;-73
2021/12/01 00:47:18;;;;;;;2.33;1.13;;;5.50;94.90;;;;;;10118698;28;20124;-73
2021/12/01 00:52:09;;;;;;;2.33;1.30;;;5.50;94.90;;;;;;10118059;28;20027;-72
2021/12/01 00:57:00;;;;;;;1.10;1.00;;;5.60;94.90;;;;;;10122570;28;20044;-73
2021/12/01 01:01:51;;;;;;;1.52;1.08;;;5.60;94.80;;;;;;10122393;28;20021;-73
2021/12/01 01:06:42;;;;;;;2.30;1.40;;;5.60;94.90;;;;;;10109627;28;20502;-74
2021/12/01 01:16:49;;;;;;;1.42;0.93;;;5.70;94.90;;;;;;10112507;28;20102;-73
2021/12/01 01:21:47;;;;;;;1.67;1.02;;;5.70;94.80;;;;;;10127807;28;20505;-70
2021/12/01 01:26:38;;;;;;;1.98;1.00;;;5.80;94.80;;;;;;10116083;28;20024;-72
2021/12/01 01:31:29;;;;;;;1.38;0.80;;;5.80;94.70;;;;;;10119999;28;20050;-73
2021/12/01 01:36:20;;;;;;;1.27;0.70;;;5.80;94.70;;;;;;10129676;28;20417;-71
2021/12/01 01:41:13;;;;;;;1.48;0.93;;;5.80;94.70;;;;;;10124443;28;20028;-72
2021/12/01 01:46:04;;;;;;;0.88;0.70;;;5.80;94.70;;;;;;10126573;28;20028;-73
2021/12/01 01:50:55;;;;;;;1.52;0.80;;;5.90;95.00;;;;;;10120128;28;20033;-71
2021/12/01 01:55:49;;;;;;;1.33;0.88;;;5.90;94.70;;;;;;10119507;28;20020;-73
2021/12/01 02:00:52;;;;;;;1.52;0.98;;;5.90;94.70;;;;;;10121151;28;20524;-74
2021/12/01 02:05:43;;;;;;;0.77;0.50;;;5.90;94.70;;;;;;10123358;28;20025;-73
2021/12/01 02:10:34;;;;;;;1.80;1.20;;;5.90;94.70;;;;;;10115048;28;20160;-73
2021/12/01 02:15:24;;;;;;;1.85;0.95;;;5.90;94.70;;;;;;10123946;28;20063;-72
2021/12/01 02:20:21;;;;;;;1.67;0.98;;;5.90;94.70;;;;;;10113973;28;20082;-72
2021/12/01 02:25:12;;;;;;;1.25;0.70;;;5.90;94.70;;;;;;10120482;28;20028;-73
2021/12/01 02:30:03;;;;;;;2.67;1.05;;;5.90;94.70;;;;;;10127279;28;20032;-73
2021/12/01 02:34:54;;;;;;;1.35;0.70;;;5.90;94.70;;;;;;10125767;28;20032;-74
2021/12/01 02:39:52;;;;;;;1.30;0.80;;;5.90;94.80;;;;;;10121004;28;20451;-74
2021/12/01 02:44:44;;;;;;;1.08;0.70;;;5.90;94.70;;;;;;10127567;28;20091;-74
2021/12/01 02:49:35;;;;;;;1.17;0.80;;;6.00;94.70;;;;;;10123059;28;20028;-74
2021/12/01 02:54:26;;;;;;;1.88;0.80;;;6.00;94.80;;;;;;10116915;28;20036;-72
2021/12/01 02:59:18;;;;;;;1.13;0.80;;;6.00;94.80;;;;;;10114391;28;20032;-75
2021/12/01 03:04:09;;;;;;;1.25;0.68;;;6.00;94.80;;;;;;10125381;28;20049;-73
2021/12/01 03:09:01;;;;;;;1.63;0.77;;;6.00;94.90;;;;;;10130121;28;20027;-74
2021/12/01 03:13:53;;;;;;;1.27;0.70;;;6.00;94.80;;;;;;10131274;28;20047;-74
2021/12/01 03:18:44;;;;;;;0.77;0.47;;;6.00;94.90;;;;;;10137238;28;20035;-71
2021/12/01 03:23:34;;;;;;;0.98;0.65;;;6.00;94.80;;;;;;10135121;28;20102;-73
2021/12/01 03:28:25;;;;;;;2.10;0.90;;;6.10;94.90;;;;;;10115036;28;20127;-74
2021/12/01 03:33:19;;;;;;;2.50;0.68;;;6.10;94.70;;;;;;10116002;28;20044;-73
2021/12/01 03:38:10;;;;;;;1.60;0.50;;;6.20;94.80;;;;;;10124635;28;20529;-73
2021/12/01 03:43:01;;;;;;;0.60;0.60;;;6.20;94.80;;;;;;10122073;28;20371;-73
2021/12/01 03:47:52;;;;;;;1.00;0.60;;;6.20;94.80;;;;;;10105792;28;20033;-73
2021/12/01 03:52:43;;;;;;;1.05;0.70;;;6.20;94.80;;;;;;10124616;28;20115;-73
2021/12/01 03:57:34;;;;;;;0.93;0.52;;;6.20;94.80;;;;;;10115528;28;20029;-74
2021/12/01 04:02:25;;;;;;;0.98;0.52;;;6.30;94.80;;;;;;10111561;28;20021;-71
2021/12/01 04:07:16;;;;;;;0.85;0.60;;;6.30;94.80;;;;;;10107760;28;20029;-72
2021/12/01 04:12:08;;;;;;;0.88;0.55;;;6.40;94.70;;;;;;10119462;28;20748;-72
2021/12/01 04:16:59;;;;;;;0.77;0.63;;;6.40;94.70;;;;;;10116552;28;20116;-70
2021/12/01 04:21:50;;;;;;;1.25;0.75;;;6.40;94.80;;;;;;10122647;28;20028;-71
2021/12/01 04:26:41;;;;;;;0.77;0.73;;;6.50;94.70;;;;;;10115299;28;20546;-74
2021/12/01 04:31:34;;;;;;;0.63;0.55;;;6.50;94.80;;;;;;10110995;28;20124;-71
2021/12/01 04:36:31;;;;;;;1.27;0.73;;;6.50;94.80;;;;;;10114080;28;20025;-74
2021/12/01 04:41:23;;;;;;;0.88;0.47;;;6.50;94.80;;;;;;10107776;28;20064;-74
2021/12/01 04:46:19;;;;;;;2.22;0.93;;;6.50;94.80;;;;;;10112665;28;20021;-73
2021/12/01 04:51:10;;;;;;;1.15;0.77;;;6.50;94.70;;;;;;10123494;28;20181;-71
2021/12/01 04:56:01;;;;;;;0.70;0.50;;;6.50;94.70;;;;;;10124378;28;20492;-73
2021/12/01 05:00:52;;;;;;;0.70;0.32;;;6.60;94.70;;;;;;10119262;28;20040;-73
2021/12/01 05:05:42;;;;;;;0.80;0.63;;;6.60;94.70;;;;;;10127511;28;20024;-73
2021/12/01 05:10:33;;;;;;;0.77;0.70;;;6.60;94.70;;;;;;10138490;28;20025;-74
2021/12/01 05:15:24;;;;;;;0.82;0.57;;;6.60;94.70;;;;;;10113015;28;20377;-74
2021/12/01 05:20:14;;;;;;;0.98;0.40;;;6.70;94.60;;;;;;10127858;28;20287;-72
2021/12/01 05:25:05;;;;;;;0.73;0.32;;;6.70;94.60;;;;;;10114981;28;20028;-73
2021/12/01 05:29:56;;;;;;;1.00;0.80;;;6.80;94.60;;;;;;10130116;28;20036;-72
2021/12/01 05:34:47;;;;;;;0.40;0.30;;;6.80;94.60;;;;;;10124957;28;20383;-73
2021/12/01 05:39:41;;;;;;;0.65;0.45;;;6.90;94.60;;;;;;10126315;28;20040;-75
2021/12/01 05:44:32;;;;;;;0.55;0.47;;;6.90;94.60;;;;;;10114291;28;20024;-74
2021/12/01 05:49:22;;;;;;;0.45;0.35;;;7.00;94.60;;;;;;10124405;28;20098;-73
2021/12/01 05:54:13;;;;;;;0.43;0.30;;;7.00;94.50;;;;;;10114875;28;20024;-73
2021/12/01 05:59:04;;;;;;;0.98;0.30;;;7.00;94.50;;;;;;10119280;28;20041;-75
2021/12/01 06:03:55;;;;;;;0.70;0.30;;;7.10;94.50;;;;;;10114974;28;20052;-73
2021/12/01 06:08:45;;;;;;;0.95;0.40;;;7.10;94.50;;;;;;10116678;28;20024;-74
2021/12/01 06:13:37;;;;;;;0.35;0.20;;;7.10;94.50;;;;;;10124256;28;20144;-75
2021/12/01 06:18:30;;;;;;;0.50;0.40;;;7.20;94.50;;;;;;10125729;28;20037;-73
2021/12/01 06:23:20;;;;;;;0.50;0.32;;;7.20;94.40;;;;;;10136146;28;20032;-73
2021/12/01 06:28:11;;;;;;;0.50;0.35;;;7.20;94.40;;;;;;10124082;28;20039;-75
2021/12/01 06:33:03;;;;;;;0.30;0.30;;;7.20;94.40;;;;;;10115347;28;20029;-75
2021/12/01 06:37:55;;;;;;;1.27;0.47;;;7.30;94.40;;;;;;10123589;28;20044;-76
2021/12/01 06:42:45;;;;;;;0.60;0.50;;;7.30;94.40;;;;;;10140810;28;20087;-75
2021/12/01 06:47:37;;;;;;;1.85;0.30;;;7.30;94.40;;;;;;10128216;28;20131;-75
2021/12/01 06:52:28;;;;;;;1.67;0.30;;;7.30;94.40;;;;;;10146984;28;20025;-71
2021/12/01 06:57:19;;;;;;;0.30;0.25;;;7.40;94.40;;;;;;10143461;28;20199;-73
2021/12/01 07:02:10;;;;;;;0.80;0.30;;;7.40;94.40;;;;;;10141333;28;20027;-72
2021/12/01 07:07:00;;;;;;;0.30;0.30;;;7.40;94.30;;;;;;10135077;28;20050;-74
2021/12/01 07:11:52;;;;;;;0.47;0.30;;;7.40;94.30;;;;;;10131346;28;20110;-75
2021/12/01 07:16:43;;;;;;;0.20;0.20;;;7.50;94.30;;;;;;10132058;28;20376;-73
2021/12/01 07:21:35;;;;;;;0.28;0.20;;;7.50;94.30;;;;;;10127441;28;20025;-75
2021/12/01 07:26:26;;;;;;;0.25;0.25;;;7.60;94.30;;;;;;10116661;28;20396;-70
2021/12/01 07:31:17;;;;;;;0.13;0.13;;;7.60;94.30;;;;;;10118890;28;20017;-64
2021/12/01 07:36:08;;;;;;;0.43;0.30;;;7.60;94.30;;;;;;10103746;28;20124;-69
2021/12/01 07:40:59;;;;;;;1.00;0.40;;;7.60;94.30;;;;;;10103516;28;20124;-71
2021/12/01 07:45:49;;;;;;;2.03;0.40;;;7.70;94.30;;;;;;10105395;28;20426;-68
2021/12/01 07:50:41;;;;;;;0.73;0.38;;;7.80;94.30;;;;;;10106797;28;20024;-72
2021/12/01 07:55:31;;;;;;;0.32;0.30;;;7.80;94.30;;;;;;10105409;28;20037;-70
2021/12/01 08:00:22;;;;;;;0.55;0.30;;;7.80;94.30;;;;;;10102033;28;20033;-68
2021/12/01 08:05:13;;;;;;;1.65;0.50;;;7.90;94.20;;;;;;10114648;28;20501;-70
2021/12/01 08:10:05;;;;;;;0.40;0.22;;;8.00;94.20;;;;;;10120363;28;20017;-67
2021/12/01 08:14:56;;;;;;;0.43;0.30;;;8.10;94.20;;;;;;10119529;28;20495;-67
2021/12/01 08:19:47;;;;;;;0.98;0.40;;;8.00;94.10;;;;;;10123953;28;20089;-68
2021/12/01 08:24:37;;;;;;;0.60;0.40;;;8.10;94.40;;;;;;10123326;28;20102;-65
2021/12/01 08:29:28;;;;;;;0.65;0.30;;;8.10;94.10;;;;;;10132135;28;20532;-66
2021/12/01 08:34:19;;;;;;;1.45;0.40;;;8.10;94.10;;;;;;10126910;28;20048;-67
2021/12/01 08:39:10;;;;;;;0.65;0.40;;;8.10;94.00;;;;;;10126114;28;20070;-66
2021/12/01 08:44:02;;;;;;;0.47;0.47;;;8.20;94.10;;;;;;10129435;28;20477;-66
2021/12/01 08:48:53;;;;;;;1.40;0.68;;;8.30;94.00;;;;;;10126455;28;20028;-68
2021/12/01 08:53:44;;;;;;;2.08;0.52;;;8.30;93.90;;;;;;10127790;28;20257;-66
2021/12/01 08:58:35;;;;;;;0.32;0.20;;;8.30;93.90;;;;;;10126324;28;20525;-66
2021/12/01 09:03:26;;;;;;;0.57;0.43;;;8.40;93.90;;;;;;10128279;28;20036;-66
2021/12/01 09:08:20;;;;;;;1.17;0.25;;;8.50;93.80;;;;;;10122883;28;20040;-67
2021/12/01 09:13:12;;;;;;;1.40;0.70;;;8.50;93.80;;;;;;10128031;28;20046;-67
2021/12/01 09:18:03;;;;;;;0.70;0.40;;;8.60;93.80;;;;;;10127016;28;20069;-66
2021/12/01 09:22:54;;;;;;;0.90;0.40;;;8.60;93.80;;;;;;10126507;28;20037;-70
2021/12/01 09:27:46;;;;;;;0.90;0.40;;;8.60;93.70;;;;;;10126570;28;20500;-66
2021/12/01 09:32:37;;;;;;;0.65;0.40;;;8.70;93.70;;;;;;10128256;28;20036;-68
2021/12/01 09:37:28;;;;;;;2.67;0.47;;;8.70;93.70;;;;;;10126405;28;20032;-65
2021/12/01 09:42:20;;;;;;;2.50;0.47;;;8.80;93.70;;;;;;10126308;28;20033;-67
2021/12/01 09:47:10;;;;;;;1.42;0.50;;;8.80;93.70;;;;;;10123614;28;20526;-65
2021/12/01 09:52:02;;;;;;;0.77;0.60;;;8.80;93.60;;;;;;10125918;28;20034;-67
2021/12/01 09:56:52;;;;;;;14.93;3.85;;;8.90;93.60;;;;;;10124095;28;20090;-66
2021/12/01 10:01:44;;;;;;;0.32;0.20;;;9.00;93.60;;;;;;10129041;28;20040;-66
2021/12/01 10:06:35;;;;;;;0.57;0.30;;;9.00;93.60;;;;;;10126533;28;20036;-66
2021/12/01 10:11:32;;;;;;;2.28;0.50;;;8.90;93.70;;;;;;10123089;28;20032;-66
2021/12/01 10:16:28;;;;;;;0.40;0.30;;;8.80;93.80;;;;;;10122928;28;20498;-68
2021/12/01 10:21:20;;;;;;;0.40;0.40;;;8.90;93.80;;;;;;10127055;28;20040;-68
2021/12/01 10:26:15;;;;;;;0.70;0.28;;;8.80;93.90;;;;;;10132274;28;20607;-68
2021/12/01 10:31:06;;;;;;;0.40;0.30;;;8.80;94.00;;;;;;10130462;28;20020;-65
2021/12/01 10:36:00;;;;;;;1.17;0.47;;;8.90;94.00;;;;;;10126553;28;20033;-67
2021/12/01 10:41:07;;;;;;;0.70;0.70;;;8.90;94.00;;;;;;10126052;28;20565;-69
2021/12/01 10:46:04;;;;;;;2.92;0.60;;;9.00;94.00;;;;;;10123486;28;20017;-66
2021/12/01 10:50:55;;;;;;;1.13;0.80;;;9.10;93.90;;;;;;10119819;28;20031;-66
2021/12/01 10:56:01;;;;;;;0.55;0.43;;;9.20;93.90;;;;;;10115942;28;20043;-65
2021/12/01 11:00:53;;;;;;;1.23;0.50;;;9.30;94.00;;;;;;10122592;28;20040;-69
2021/12/01 11:05:50;;;;;;;1.92;0.65;;;9.40;93.90;;;;;;10121684;28;20059;-66
2021/12/01 11:10:42;;;;;;;0.70;0.50;;;9.40;93.90;;;;;;10121056;28;20028;-66
2021/12/01 11:15:36;;;;;;;1.08;0.68;;;9.50;93.90;;;;;;10123727;28;20048;-69
2021/12/01 11:20:44;;;;;;;0.40;0.40;;;9.50;93.90;;;;;;10121316;28;20063;-67
2021/12/01 11:25:36;;;;;;;3.25;0.90;;;9.60;93.90;;;;;;10122153;28;20029;-67
2021/12/01 11:30:27;;;;;;;1.77;0.70;;;9.60;93.90;;;;;;10118383;28;20692;-68
2021/12/01 11:35:23;;;;;;;1.50;0.50;;;9.60;93.90;;;;;;10109416;28;20025;-68
2021/12/01 11:40:14;;;;;;;1.65;0.65;;;9.60;93.70;;;;;;10108990;28;20615;-67
2021/12/01 11:45:06;;;;;;;1.45;0.80;;;9.60;93.80;;;;;;10118527;28;20031;-69
2021/12/01 11:50:01;;;;;;;1.25;0.50;;;9.70;93.70;;;;;;10124422;28;20510;-70
2021/12/01 11:54:52;;;;;;;1.30;0.73;;;9.70;93.70;;;;;;10121956;28;20106;-75
2021/12/01 11:59:49;;;;;;;0.70;0.60;;;9.70;93.70;;;;;;10119201;28;20121;-71
2021/12/01 12:04:51;;;;;;;1.02;0.40;;;9.70;93.70;;;;;;10121632;28;20033;-70
2021/12/01 12:10:00;;;;;;;1.50;0.68;;;9.70;93.80;;;;;;10128163;28;20498;-71
2021/12/01 12:14:54;;;;;;;1.98;1.17;;;9.80;93.80;;;;;;10120580;28;20119;-71
2021/12/01 12:20:08;;;;;;;1.10;0.68;;;9.80;93.80;;;;;;10117156;28;20162;-70
2021/12/01 12:25:00;;;;;;;2.40;0.80;;;9.80;93.80;;;;;;10120744;28;20307;-71
2021/12/01 12:29:50;;;;;;;1.98;0.80;;;9.80;93.90;;;;;;10136976;28;20024;-70
2021/12/01 12:34:49;;;;;;;1.77;0.73;;;9.80;93.90;;;;;;10121046;28;20044;-69
2021/12/01 12:39:46;;;;;;;1.63;0.77;;;9.80;94.10;;;;;;10123213;28;20044;-70
2021/12/01 12:44:40;;;;;;;1.23;0.50;;;9.80;94.00;;;;;;10120123;28;20466;-69
2021/12/01 12:49:45;;;;;;;0.75;0.50;;;9.80;94.00;;;;;;10124432;28;20075;-70
2021/12/01 12:54:37;;;;;;;0.95;0.60;;;9.80;94.10;;;;;;10116414;28;20032;-71
2021/12/01 12:59:32;;;;;;;0.98;0.50;;;9.80;94.20;;;;;;10110488;28;20378;-64
2021/12/01 13:04:48;;;;;;;1.05;0.68;;;9.70;94.20;;;;;;10118446;28;20052;-68
2021/12/01 13:09:39;;;;;;;1.00;0.45;;;9.80;94.30;;;;;;10119009;28;20388;-64
2021/12/01 13:14:38;;;;;;;1.50;0.90;;;9.80;94.30;;;;;;10130875;28;20048;-67
2021/12/01 13:19:29;;;;;;;1.60;0.40;;;9.80;94.30;;;;;;10122178;28;20109;-65
2021/12/01 13:24:20;;;;;;;1.25;0.90;;;9.80;94.30;;;;;;10123718;28;20510;-72
2021/12/01 13:29:18;;;;;;;3.20;0.52;;;9.70;94.30;;;;;;10127929;28;20024;-76
2021/12/01 13:34:11;;;;;;;1.52;0.47;;;9.80;94.50;;;;;;10128907;28;20071;-68
2021/12/01 13:39:13;;;;;;;1.10;0.70;;;9.70;94.50;;;;;;10129205;28;20675;-73
2021/12/01 13:44:08;;;;;;;1.00;0.60;;;9.80;94.50;;;;;;10133756;28;20043;-64
2021/12/01 13:48:58;;;;;;;0.80;0.45;;;9.80;94.60;;;;;;10127128;28;20048;-70
2021/12/01 13:53:50;;;;;;;0.90;0.52;;;9.90;94.60;;;;;;10133972;28;20031;-73
2021/12/01 13:58:45;;;;;;;0.43;0.40;;;9.90;94.40;;;;;;10119435;28;20040;-75
2021/12/01 14:03:38;;;;;;;0.20;0.20;;;10.10;94.20;;;;;;10122486;28;20109;-73
2021/12/01 14:08:28;;;;;;;0.20;0.20;;;10.10;93.90;;;;;;10117480;28;20036;-74
2021/12/01 14:13:21;;;;;;;1.00;0.25;;;10.10;93.80;;;;;;10113121;28;20495;-75
2021/12/01 14:18:15;;;;;;;0.00;0.00;;;10.10;93.80;;;;;;10114306;28;20047;-73
2021/12/01 14:23:06;;;;;;;0.20;0.20;;;10.10;93.50;;;;;;10123950;28;20027;-71
2021/12/01 14:28:13;;;;;;;0.40;0.20;;;10.20;93.40;;;;;;10125331;28;20416;-73
2021/12/01 14:33:09;;;;;;;0.40;0.10;;;10.10;93.20;;;;;;10122860;28;20056;-75
2021/12/01 14:38:00;;;;;;;0.38;0.15;;;10.10;93.10;;;;;;10122247;28;20087;-72
2021/12/01 14:42:53;;;;;;;0.32;0.30;;;10.10;93.30;;;;;;10124126;28;20291;-73
2021/12/01 14:48:00;;;;;;;1.48;0.25;;;10.10;93.20;;;;;;10125288;28;20020;-74
2021/12/01 14:52:54;;;;;;;0.40;0.30;;;10.00;93.00;;;;;;10120896;28;20108;-73
2021/12/01 14:57:51;;;;;;;0.43;0.40;;;10.00;92.90;;;;;;10123350;28;20048;-67
2021/12/01 15:02:42;;;;;;;0.38;0.20;;;10.00;92.90;;;;;;10128393;28;20036;-71
2021/12/01 15:08:03;;;;;;;0.40;0.20;;;10.10;92.90;;;;;;10119520;28;20035;-68
2021/12/01 15:13:00;;;;;;;0.15;0.15;;;10.10;92.70;;;;;;10121566;28;20025;-72
2021/12/01 15:18:05;;;;;;;0.68;0.50;;;10.10;92.70;;;;;;10121059;28;20089;-72
2021/12/01 15:23:17;;;;;;;0.43;0.40;;;10.10;92.60;;;;;;10122390;28;20025;-70
2021/12/01 15:28:12;;;;;;;0.45;0.45;;;10.10;92.60;;;;;;10114129;28;20043;-73
2021/12/01 15:33:07;;;;;;;0.30;0.30;;;10.10;92.60;;;;;;10118436;28;20048;-69
2021/12/01 15:37:58;;;;;;;0.50;0.50;;;10.10;92.40;;;;;;10119620;28;20043;-62
2021/12/01 15:42:48;;;;;;;0.10;0.10;;;10.10;92.50;;;;;;10119640;28;20029;-65
2021/12/01 15:47:40;;;;;;;0.43;0.32;;;10.10;92.30;;;;;;10119013;28;20086;-64
2021/12/01 15:52:32;;;;;;;1.48;0.50;;;10.10;92.20;;;;;;10124810;28;20231;-71
2021/12/01 15:57:23;;;;;;;0.82;0.40;;;10.10;92.20;;;;;;10123881;28;20387;-68
2021/12/01 16:02:14;;;;;;;0.55;0.40;;;10.10;92.10;;;;;;10122459;28;20036;-73
2021/12/01 16:07:04;;;;;;;0.30;0.30;;;10.00;92.00;;;;;;10117056;28;20080;-74
2021/12/01 16:11:56;;;;;;;1.08;0.50;;;10.00;92.30;;;;;;10107465;28;20073;-72
2021/12/01 16:16:47;;;;;;;2.88;1.85;;;10.00;92.10;;;;;;10110138;28;20060;-72
2021/12/01 16:21:38;;;;;;;0.93;0.68;;;9.90;92.10;;;;;;10119088;28;20032;-71
2021/12/01 16:26:32;;;;;;;0.80;0.75;;;9.80;92.20;;;;;;10119033;28;20087;-72
2021/12/01 16:31:24;;;;;;;1.25;0.40;;;9.80;92.30;;;;;;10117430;28;20032;-72
2021/12/01 16:36:15;;;;;;;2.40;0.65;;;9.70;92.40;;;;;;10117250;28;20223;-70
2021/12/01 16:41:06;;;;;;;1.20;0.50;;;9.60;92.40;;;;;;10114834;28;20039;-71
2021/12/01 16:45:57;;;;;;;0.82;0.60;;;9.60;92.50;;;;;;10127901;28;20129;-71
2021/12/01 16:50:48;;;;;;;2.10;0.60;;;9.50;92.60;;;;;;10128636;28;20035;-72
2021/12/01 16:55:39;;;;;;;1.10;0.60;;;9.50;92.60;;;;;;10124306;28;20036;-71
2021/12/01 17:00:33;;;;;;;0.50;0.50;;;9.40;92.70;;;;;;10136187;28;20064;-69
2021/12/01 17:05:25;;;;;;;2.03;0.60;;;9.40;92.60;;;;;;10123340;28;20031;-70
2021/12/01 17:10:17;;;;;;;2.78;0.68;;;9.40;92.60;;;;;;10127543;28;20095;-72
2021/12/01 17:15:09;;;;;;;1.08;0.70;;;9.40;92.70;;;;;;10121057;28;20044;-71
2021/12/01 17:20:07;;;;;;;1.20;1.10;;;9.40;92.70;;;;;;10115547;28;20085;-69
2021/12/01 17:24:58;;;;;;;1.67;1.13;;;9.40;92.70;;;;;;10122988;28;20054;-68
2021/12/01 17:29:55;;;;;;;1.63;0.75;;;9.40;92.70;;;;;;10125635;28;20059;-70
2021/12/01 17:34:50;;;;;;;1.55;0.52;;;9.40;92.80;;;;;;10117857;28;20021;-73
2021/12/01 17:39:43;;;;;;;1.15;0.52;;;9.40;92.70;;;;;;10126385;28;20040;-73
2021/12/01 17:44:35;;;;;;;1.02;0.93;;;9.40;92.70;;;;;;10119139;28;20092;-72
2021/12/01 17:49:26;;;;;;;2.67;1.15;;;9.40;93.00;;;;;;10127454;28;20136;-69
2021/12/01 17:54:17;;;;;;;1.30;0.85;;;9.50;92.70;;;;;;10123785;28;20270;-70
2021/12/01 17:59:08;;;;;;;2.67;1.55;;;9.40;92.80;;;;;;10124426;28;20060;-71
2021/12/01 18:03:58;;;;;;;1.77;0.75;;;9.50;92.80;;;;;;10122771;28;20021;-71
2021/12/01 18:08:49;;;;;;;0.70;0.50;;;9.40;92.80;;;;;;10125530;28;20135;-70
2021/12/01 18:13:40;;;;;;;2.15;0.77;;;9.50;92.80;;;;;;10122185;28;20036;-72
2021/12/01 18:18:31;;;;;;;1.40;0.60;;;9.50;92.70;;;;;;10125350;28;20048;-70
2021/12/01 18:23:23;;;;;;;1.80;0.50;;;9.50;92.80;;;;;;10123786;28;20040;-69
2021/12/01 18:28:18;;;;;;;1.85;0.70;;;9.50;92.80;;;;;;10121391;28;20052;-69
2021/12/01 18:33:09;;;;;;;0.75;0.68;;;9.50;92.70;;;;;;10125736;28;20049;-72
2021/12/01 18:38:01;;;;;;;0.82;0.55;;;9.50;92.70;;;;;;10124518;28;20051;-65
2021/12/01 18:42:53;;;;;;;2.30;0.90;;;9.40;92.60;;;;;;10120411;28;20074;-71
2021/12/01 18:47:44;;;;;;;0.93;0.70;;;9.40;92.60;;;;;;10120955;28;20540;-66
2021/12/01 18:52:37;;;;;;;0.93;0.80;;;9.40;92.60;;;;;;10114182;28;20086;-70
2021/12/01 18:57:28;;;;;;;1.98;1.10;;;9.50;92.60;;;;;;10107341;28;20529;-70
2021/12/01 19:02:19;;;;;;;1.30;0.70;;;9.40;92.50;;;;;;10122967;28;20139;-71
2021/12/01 19:07:11;;;;;;;2.85;0.90;;;9.30;92.60;;;;;;10121771;28;20028;-73
2021/12/01 19:12:02;;;;;;;1.38;0.50;;;9.10;92.70;;;;;;10128787;28;20032;-77
2021/12/01 19:16:53;;;;;;;1.67;0.70;;;9.00;92.90;;;;;;10124276;28;20056;-77
2021/12/01 19:21:44;;;;;;;1.05;0.80;;;8.90;93.00;;;;;;10125744;28;20037;-73
2021/12/01 19:26:35;;;;;;;1.55;0.80;;;8.90;93.20;;;;;;10110092;28;20043;-74
2021/12/01 19:31:27;;;;;;;3.03;0.60;;;8.80;93.10;;;;;;10115093;28;20692;-76
2021/12/01 19:36:17;;;;;;;1.15;0.73;;;8.90;93.30;;;;;;10130540;28;20035;-72
2021/12/01 19:41:09;;;;;;;1.13;0.80;;;8.90;93.30;;;;;;10122334;28;20047;-73
2021/12/01 19:46:00;;;;;;;1.52;0.90;;;8.80;93.30;;;;;;10129154;28;20024;-75
2021/12/01 19:50:50;;;;;;;1.50;0.80;;;8.80;93.60;;;;;;10125438;28;20029;-72
2021/12/01 19:55:41;;;;;;;1.63;0.90;;;8.70;93.50;;;;;;10126706;28;20029;-76
2021/12/01 20:00:33;;;;;;;1.95;0.80;;;8.60;93.60;;;;;;10121504;28;20036;-73
2021/12/01 20:05:29;;;;;;;1.95;1.27;;;8.60;93.70;;;;;;10124247;28;20035;-74
2021/12/01 20:10:27;;;;;;;0.82;0.57;;;8.50;93.70;;;;;;10128106;28;20032;-76
2021/12/01 20:15:19;;;;;;;0.50;0.50;;;8.40;93.90;;;;;;10119716;28;20457;-76
2021/12/01 20:20:12;;;;;;;1.20;0.70;;;8.40;93.90;;;;;;10130703;28;20032;-75
2021/12/01 20:25:05;;;;;;;1.65;1.35;;;8.40;94.00;;;;;;10140445;28;20047;-77
2021/12/01 20:29:56;;;;;;;3.40;0.77;;;8.40;94.00;;;;;;10130790;28;20048;-75
2021/12/01 20:34:48;;;;;;;2.60;0.50;;;8.40;94.10;;;;;;10141697;28;20025;-74
2021/12/01 20:39:45;;;;;;;0.77;0.43;;;8.40;94.10;;;;;;10131270;28;20078;-74
2021/12/01 20:44:37;;;;;;;1.20;0.40;;;8.30;94.20;;;;;;10131995;28;20036;-76
2021/12/01 20:54:54;;;;;;;1.05;0.52;;;8.30;94.20;;;;;;10133571;28;20035;-73
2021/12/01 21:00:06;;;;;;;4.75;0.55;;;8.10;94.40;;;;;;10128864;28;20065;-71
2021/12/01 21:04:59;;;;;;;2.40;0.73;;;8.10;94.50;;;;;;10131681;28;20676;-74
2021/12/01 21:09:57;;;;;;;0.40;0.40;;;8.10;94.40;;;;;;10131867;28;20033;-76
2021/12/01 21:14:54;;;;;;;2.05;0.60;;;8.10;94.50;;;;;;10135144;28;20040;-76
2021/12/01 21:19:45;;;;;;;1.73;0.60;;;8.00;94.60;;;;;;10128650;28;20502;-73
2021/12/01 21:24:36;;;;;;;1.17;0.47;;;7.90;94.70;;;;;;10137202;28;20028;-77
2021/12/01 21:29:28;;;;;;;1.15;0.50;;;7.90;94.80;;;;;;10138608;28;20031;-76
2021/12/01 21:34:19;;;;;;;1.70;0.50;;;7.90;94.80;;;;;;10129276;28;20032;-74
2021/12/01 21:39:10;;;;;;;1.05;0.77;;;7.90;94.80;;;;;;10125309;28;20167;-78
2021/12/01 21:44:01;;;;;;;0.40;0.30;;;8.00;94.70;;;;;;10122240;28;20016;-74
2021/12/01 21:48:52;;;;;;;0.75;0.40;;;8.10;94.60;;;;;;10117941;28;20025;-68
2021/12/01 21:53:49;;;;;;;0.30;0.30;;;8.10;94.50;;;;;;10123826;28;20028;-70
2021/12/01 21:58:42;;;;;;;0.88;0.40;;;8.10;94.40;;;;;;10122377;28;20049;-70
2021/12/01 22:03:34;;;;;;;0.80;0.40;;;8.00;94.50;;;;;;10121520;28;20097;-70
2021/12/01 22:08:25;;;;;;;0.68;0.50;;;8.00;94.50;;;;;;10110192;28;20033;-69
2021/12/01 22:13:17;;;;;;;0.85;0.47;;;7.90;94.50;;;;;;10120344;28;20541;-68
2021/12/01 22:18:09;;;;;;;1.23;0.52;;;7.90;94.50;;;;;;10113369;28;20033;-69
2021/12/01 22:23:05;;;;;;;3.20;0.70;;;7.80;94.40;;;;;;10113158;28;20641;-69
2021/12/01 22:27:58;;;;;;;0.70;0.60;;;7.70;94.30;;;;;;10122412;28;20111;-68
2021/12/01 22:32:50;;;;;;;1.63;0.73;;;7.70;94.30;;;;;;10122437;28;20052;-70
2021/12/01 22:37:44;;;;;;;1.13;0.90;;;7.60;94.20;;;;;;10124061;28;20043;-69
2021/12/01 22:42:35;;;;;;;4.57;1.90;;;7.60;94.30;;;;;;10106562;28;20127;-68
2021/12/01 22:47:26;;;;;;;1.45;0.73;;;7.50;94.30;;;;;;10120118;28;20108;-69
2021/12/01 22:52:17;;;;;;;1.02;0.40;;;7.50;94.40;;;;;;10102824;28;20029;-70
2021/12/01 22:57:10;;;;;;;1.20;0.47;;;7.50;94.50;;;;;;10108700;28;20295;-68
2021/12/01 23:02:03;;;;;;;0.73;0.52;;;7.40;94.30;;;;;;10100872;28;20055;-69
2021/12/01 23:06:55;;;;;;;1.20;0.40;;;7.40;94.20;;;;;;10104336;28;20017;-70
2021/12/01 23:11:46;;;;;;;0.38;0.28;;;7.40;94.30;;;;;;10110432;28;20035;-70
2021/12/01 23:16:38;;;;;;;0.63;0.43;;;7.40;94.30;;;;;;10115583;28;20322;-69
2021/12/01 23:21:29;;;;;;;0.47;0.28;;;7.40;94.20;;;;;;10123359;28;20478;-68
2021/12/01 23:31:29;;;;;;;0.47;0.40;;;7.30;94.30;;;;;;10124543;28;20095;-68
2021/12/01 23:36:23;;;;;;;0.93;0.63;;;7.30;94.40;;;;;;10102532;28;20071;-69
2021/12/01 23:41:15;;;;;;;0.25;0.25;;;7.30;94.50;;;;;;10111463;28;20410;-69
2021/12/01 23:51:19;;;;;;;0.50;0.43;;;7.40;94.40;;;;;;10115495;28;20072;-69
2021/12/01 23:56:10;;;;;;;0.32;0.28;;;7.40;94.40;;;;;;10123457;28;20584;-69
